TimeCDT,TemperatureF,Dew PointF,Humidity,Sea Level PressureIn,VisibilityMPH,Wind Direction,Wind SpeedMPH,Gust SpeedMPH,PrecipitationIn,Events,Conditions,WindDirDegrees,DateUTC
12:33 AM,64.4,50.0,59,30.00,10.0,South,13.8,-,N/A,,Mostly Cloudy,190,2013-09-14 05:33:00
12:52 AM,64.0,50.0,60,29.95,10.0,South,16.1,-,N/A,,Overcast,190,2013-09-14 05:52:00
1:52 AM,64.0,50.0,60,29.94,10.0,South,16.1,23.0,N/A,,Overcast,190,2013-09-14 06:52:00
2:52 AM,64.9,48.0,54,29.91,10.0,South,16.1,25.3,N/A,,Overcast,180,2013-09-14 07:52:00
3:22 AM,64.4,48.2,56,29.95,10.0,South,15.0,23.0,N/A,,Overcast,190,2013-09-14 08:22:00
3:35 AM,64.4,48.2,56,29.95,10.0,South,17.3,-,N/A,,Overcast,190,2013-09-14 08:35:00
3:52 AM,64.0,48.9,58,29.90,10.0,South,15.0,-,N/A,,Overcast,190,2013-09-14 08:52:00
4:48 AM,64.4,50.0,59,29.92,10.0,South,12.7,-,N/A,,Scattered Clouds,180,2013-09-14 09:48:00
4:52 AM,64.0,50.0,60,29.87,10.0,South,12.7,-,N/A,,Scattered Clouds,180,2013-09-14 09:52:00
5:52 AM,62.1,52.0,70,29.85,10.0,South,18.4,28.8,0.00,Rain,Light Rain,180,2013-09-14 10:52:00
6:52 AM,62.1,52.0,70,29.85,10.0,SSW,12.7,21.9,0.00,,Scattered Clouds,200,2013-09-14 11:52:00
7:13 AM,62.6,53.6,72,29.90,10.0,SSW,13.8,-,0.00,,Mostly Cloudy,200,2013-09-14 12:13:00
7:52 AM,62.1,53.1,72,29.86,10.0,South,13.8,-,0.00,,Overcast,180,2013-09-14 12:52:00
8:52 AM,64.0,54.0,70,29.85,10.0,SSW,18.4,-,N/A,,Scattered Clouds,200,2013-09-14 13:52:00
9:01 AM,64.4,53.6,68,29.88,10.0,SSW,21.9,26.5,N/A,,Mostly Cloudy,200,2013-09-14 14:01:00
9:37 AM,66.2,55.4,68,29.88,10.0,SSW,19.6,29.9,N/A,,Overcast,200,2013-09-14 14:37:00
9:52 AM,66.9,55.0,66,29.85,10.0,SSW,20.7,27.6,N/A,,Overcast,210,2013-09-14 14:52:00
10:52 AM,71.1,57.0,61,29.85,10.0,SW,19.6,26.5,N/A,,Partly Cloudy,220,2013-09-14 15:52:00
11:52 AM,73.9,59.0,59,29.83,10.0,SW,16.1,-,N/A,,Partly Cloudy,220,2013-09-14 16:52:00
12:52 PM,75.9,59.0,56,29.80,10.0,SSW,17.3,23.0,N/A,,Clear,210,2013-09-14 17:52:00
1:52 PM,78.1,59.0,52,29.78,10.0,SW,16.1,23.0,N/A,,Clear,220,2013-09-14 18:52:00
2:52 PM,80.1,59.0,48,29.76,10.0,SSW,16.1,24.2,N/A,,Clear,210,2013-09-14 19:52:00
3:52 PM,82.0,60.1,47,29.75,10.0,SSW,13.8,21.9,N/A,,Clear,210,2013-09-14 20:52:00
4:52 PM,81.0,60.1,49,29.74,10.0,South,16.1,-,N/A,,Clear,190,2013-09-14 21:52:00
5:52 PM,81.0,60.1,49,29.74,10.0,SSW,18.4,-,N/A,,Clear,210,2013-09-14 22:52:00
6:52 PM,77.0,60.1,56,29.75,10.0,SSW,13.8,-,N/A,,Clear,210,2013-09-14 23:52:00
7:52 PM,75.0,60.1,60,29.76,10.0,SW,6.9,-,N/A,,Clear,220,2013-09-15 00:52:00
8:52 PM,72.0,61.0,68,29.80,10.0,NW,4.6,-,N/A,,Mostly Cloudy,320,2013-09-15 01:52:00
9:34 PM,73.4,60.8,65,29.86,10.0,North,17.3,27.6,N/A,Thunderstorm,Mostly Cloudy,10,2013-09-15 02:34:00
9:52 PM,73.0,60.1,64,29.83,10.0,NNE,16.1,21.9,N/A,Thunderstorm,Partly Cloudy,20,2013-09-15 02:52:00
10:13 PM,71.6,60.8,69,29.89,10.0,North,17.3,-,N/A,,Clear,360,2013-09-15 03:13:00
10:52 PM,66.9,60.1,79,29.86,10.0,North,18.4,27.6,N/A,,Clear,360,2013-09-15 03:52:00
11:41 PM,64.4,60.8,88,29.95,10.0,North,10.4,18.4,N/A,,Overcast,10,2013-09-15 04:41:00
11:52 PM,64.9,61.0,87,29.91,10.0,North,8.1,17.3,N/A,,Overcast,360,2013-09-15 04:52:00